sensor_id;sensor_type;location;lat;lon;timestamp;temperature;humidity
12761;DHT22;6444;49.742;6.114;2023-04-07T00:01:39;11.60;99.90
12761;DHT22;6444;49.742;6.114;2023-04-07T00:04:05;11.60;99.90
12761;DHT22;6444;49.742;6.114;2023-04-07T00:06:32;10.70;99.90
12761;DHT22;6444;49.742;6.114;2023-04-07T00:08:59;11.00;99.90
12761;DHT22;6444;49.742;6.114;2023-04-07T00:11:25;11.40;99.90
12761;DHT22;6444;49.742;6.114;2023-04-07T00:13:52;11.30;99.90
12761;DHT22;6444;49.742;6.114;2023-04-07T00:16:19;11.50;99.90
12761;DHT22;6444;49.742;6.114;2023-04-07T00:18:45;11.20;99.90
12761;DHT22;6444;49.742;6.114;2023-04-07T00:21:12;11.30;99.90
12761;DHT22;6444;49.742;6.114;2023-04-07T00:23:39;11.40;99.90
12761;DHT22;6444;49.742;6.114;2023-04-07T00:26:05;11.40;99.90
12761;DHT22;6444;49.742;6.114;2023-04-07T00:28:32;11.30;99.90
12761;DHT22;6444;49.742;6.114;2023-04-07T00:30:58;10.90;99.90
12761;DHT22;6444;49.742;6.114;2023-04-07T00:33:25;10.90;99.90
12761;DHT22;6444;49.742;6.114;2023-04-07T00:35:52;10.90;99.90
12761;DHT22;6444;49.742;6.114;2023-04-07T00:38:18;11.30;99.90
12761;DHT22;6444;49.742;6.114;2023-04-07T00:40:45;11.40;99.90
12761;DHT22;6444;49.742;6.114;2023-04-07T00:43:12;11.50;99.90
12761;DHT22;6444;49.742;6.114;2023-04-07T00:45:38;11.70;99.90
12761;DHT22;6444;49.742;6.114;2023-04-07T00:48:06;11.90;99.90
12761;DHT22;6444;49.742;6.114;2023-04-07T00:50:32;11.80;99.90
12761;DHT22;6444;49.742;6.114;2023-04-07T00:52:59;11.80;99.90
12761;DHT22;6444;49.742;6.114;2023-04-07T00:55:26;11.80;99.90
12761;DHT22;6444;49.742;6.114;2023-04-07T00:57:52;11.60;99.90
12761;DHT22;6444;49.742;6.114;2023-04-07T01:00:19;11.60;99.90
12761;DHT22;6444;49.742;6.114;2023-04-07T01:02:58;11.30;99.90
12761;DHT22;6444;49.742;6.114;2023-04-07T01:05:35;11.60;99.90
12761;DHT22;6444;49.742;6.114;2023-04-07T01:10:49;11.70;99.90
12761;DHT22;6444;49.742;6.114;2023-04-07T01:15:42;11.70;99.90
12761;DHT22;6444;49.742;6.114;2023-04-07T01:18:16;11.60;99.90
12761;DHT22;6444;49.742;6.114;2023-04-07T01:20:41;11.40;99.90
12761;DHT22;6444;49.742;6.114;2023-04-07T01:23:08;11.40;99.90
12761;DHT22;6444;49.742;6.114;2023-04-07T01:26:03;11.30;99.90
12761;DHT22;6444;49.742;6.114;2023-04-07T01:30:52;10.70;99.90
12761;DHT22;6444;49.742;6.114;2023-04-07T01:33:19;10.80;99.90
12761;DHT22;6444;49.742;6.114;2023-04-07T01:35:46;11.00;99.90
12761;DHT22;6444;49.742;6.114;2023-04-07T01:38:12;11.30;99.90
12761;DHT22;6444;49.742;6.114;2023-04-07T01:40:39;10.40;99.90
12761;DHT22;6444;49.742;6.114;2023-04-07T01:43:06;10.10;99.90
12761;DHT22;6444;49.742;6.114;2023-04-07T01:45:33;10.50;99.90
12761;DHT22;6444;49.742;6.114;2023-04-07T01:48:00;10.50;99.90
12761;DHT22;6444;49.742;6.114;2023-04-07T01:50:26;10.70;99.90
12761;DHT22;6444;49.742;6.114;2023-04-07T01:52:53;10.90;99.90
12761;DHT22;6444;49.742;6.114;2023-04-07T01:55:20;11.10;99.90
12761;DHT22;6444;49.742;6.114;2023-04-07T01:57:49;11.00;99.90
12761;DHT22;6444;49.742;6.114;2023-04-07T02:00:17;11.10;99.90
12761;DHT22;6444;49.742;6.114;2023-04-07T02:02:44;10.70;99.90
12761;DHT22;6444;49.742;6.114;2023-04-07T02:05:11;10.00;99.90
12761;DHT22;6444;49.742;6.114;2023-04-07T02:07:48;9.90;99.90
12761;DHT22;6444;49.742;6.114;2023-04-07T02:10:12;9.60;99.90
12761;DHT22;6444;49.742;6.114;2023-04-07T02:12:38;10.20;99.90
12761;DHT22;6444;49.742;6.114;2023-04-07T02:15:06;10.50;99.90
12761;DHT22;6444;49.742;6.114;2023-04-07T02:17:32;10.90;99.90
12761;DHT22;6444;49.742;6.114;2023-04-07T02:19:59;10.80;99.90
12761;DHT22;6444;49.742;6.114;2023-04-07T02:22:25;10.80;99.90
12761;DHT22;6444;49.742;6.114;2023-04-07T02:24:52;11.10;99.90
12761;DHT22;6444;49.742;6.114;2023-04-07T02:27:19;10.90;99.90
12761;DHT22;6444;49.742;6.114;2023-04-07T02:29:45;11.00;99.90
12761;DHT22;6444;49.742;6.114;2023-04-07T02:32:12;10.60;99.90
12761;DHT22;6444;49.742;6.114;2023-04-07T02:34:39;10.30;99.90
12761;DHT22;6444;49.742;6.114;2023-04-07T02:37:06;10.30;99.90
12761;DHT22;6444;49.742;6.114;2023-04-07T02:39:33;10.20;99.90
12761;DHT22;6444;49.742;6.114;2023-04-07T02:41:59;9.80;99.90
12761;DHT22;6444;49.742;6.114;2023-04-07T02:44:26;9.40;99.90
12761;DHT22;6444;49.742;6.114;2023-04-07T02:46:53;9.20;99.90
12761;DHT22;6444;49.742;6.114;2023-04-07T02:49:19;9.30;99.90
12761;DHT22;6444;49.742;6.114;2023-04-07T02:51:46;10.10;99.90
12761;DHT22;6444;49.742;6.114;2023-04-07T02:54:12;10.50;99.90
12761;DHT22;6444;49.742;6.114;2023-04-07T02:56:39;10.90;99.90
12761;DHT22;6444;49.742;6.114;2023-04-07T02:59:06;10.90;99.90
12761;DHT22;6444;49.742;6.114;2023-04-07T03:01:32;10.70;99.90
12761;DHT22;6444;49.742;6.114;2023-04-07T03:04:00;10.10;99.90
12761;DHT22;6444;49.742;6.114;2023-04-07T03:06:26;10.00;99.90
12761;DHT22;6444;49.742;6.114;2023-04-07T03:08:53;9.80;99.90
12761;DHT22;6444;49.742;6.114;2023-04-07T03:11:20;9.80;99.90
12761;DHT22;6444;49.742;6.114;2023-04-07T03:13:46;10.40;99.90
12761;DHT22;6444;49.742;6.114;2023-04-07T03:16:13;11.20;99.90
12761;DHT22;6444;49.742;6.114;2023-04-07T03:18:40;11.40;99.90
12761;DHT22;6444;49.742;6.114;2023-04-07T03:21:07;11.40;99.90
12761;DHT22;6444;49.742;6.114;2023-04-07T03:23:34;10.80;99.90
12761;DHT22;6444;49.742;6.114;2023-04-07T03:26:00;10.70;99.90
12761;DHT22;6444;49.742;6.114;2023-04-07T03:28:27;10.70;99.90
12761;DHT22;6444;49.742;6.114;2023-04-07T03:30:53;11.10;99.90
12761;DHT22;6444;49.742;6.114;2023-04-07T03:33:21;11.60;99.90
12761;DHT22;6444;49.742;6.114;2023-04-07T03:35:48;11.50;99.90
12761;DHT22;6444;49.742;6.114;2023-04-07T03:38:14;11.80;99.90
12761;DHT22;6444;49.742;6.114;2023-04-07T03:40:41;11.30;99.90
12761;DHT22;6444;49.742;6.114;2023-04-07T03:43:07;11.10;99.90
12761;DHT22;6444;49.742;6.114;2023-04-07T03:45:35;10.40;99.90
12761;DHT22;6444;49.742;6.114;2023-04-07T03:48:01;10.40;99.90
12761;DHT22;6444;49.742;6.114;2023-04-07T03:50:28;9.90;99.90
12761;DHT22;6444;49.742;6.114;2023-04-07T03:52:55;9.60;99.90
12761;DHT22;6444;49.742;6.114;2023-04-07T03:55:21;9.60;99.90
12761;DHT22;6444;49.742;6.114;2023-04-07T03:57:48;9.30;99.90
12761;DHT22;6444;49.742;6.114;2023-04-07T04:00:15;9.60;99.90
12761;DHT22;6444;49.742;6.114;2023-04-07T04:02:42;9.50;99.90
12761;DHT22;6444;49.742;6.114;2023-04-07T04:05:09;9.60;99.90
12761;DHT22;6444;49.742;6.114;2023-04-07T04:07:35;9.80;99.90
12761;DHT22;6444;49.742;6.114;2023-04-07T04:10:02;9.60;99.90
12761;DHT22;6444;49.742;6.114;2023-04-07T04:12:29;9.80;99.90
12761;DHT22;6444;49.742;6.114;2023-04-07T04:14:56;9.70;99.90
12761;DHT22;6444;49.742;6.114;2023-04-07T04:17:23;9.80;99.90
12761;DHT22;6444;49.742;6.114;2023-04-07T04:19:49;9.90;99.90
12761;DHT22;6444;49.742;6.114;2023-04-07T04:22:17;10.20;99.90
12761;DHT22;6444;49.742;6.114;2023-04-07T04:24:43;10.10;99.90
12761;DHT22;6444;49.742;6.114;2023-04-07T04:27:10;10.10;99.90
12761;DHT22;6444;49.742;6.114;2023-04-07T04:29:36;10.50;99.90
12761;DHT22;6444;49.742;6.114;2023-04-07T04:32:03;10.70;99.90
12761;DHT22;6444;49.742;6.114;2023-04-07T04:34:30;10.90;99.90
12761;DHT22;6444;49.742;6.114;2023-04-07T04:36:57;11.10;99.90
12761;DHT22;6444;49.742;6.114;2023-04-07T04:39:24;11.10;99.90
12761;DHT22;6444;49.742;6.114;2023-04-07T04:41:50;11.50;99.90
12761;DHT22;6444;49.742;6.114;2023-04-07T04:44:18;11.30;99.90
12761;DHT22;6444;49.742;6.114;2023-04-07T04:46:45;11.30;99.90
12761;DHT22;6444;49.742;6.114;2023-04-07T04:49:12;11.20;99.90
12761;DHT22;6444;49.742;6.114;2023-04-07T04:51:39;11.30;99.90
12761;DHT22;6444;49.742;6.114;2023-04-07T04:54:05;11.70;99.90
12761;DHT22;6444;49.742;6.114;2023-04-07T04:56:33;10.70;99.90
12761;DHT22;6444;49.742;6.114;2023-04-07T04:58:59;10.70;99.90
12761;DHT22;6444;49.742;6.114;2023-04-07T05:01:26;11.20;99.90
12761;DHT22;6444;49.742;6.114;2023-04-07T05:03:52;11.20;99.90
12761;DHT22;6444;49.742;6.114;2023-04-07T05:06:19;11.10;99.90
12761;DHT22;6444;49.742;6.114;2023-04-07T05:08:47;10.30;99.90
12761;DHT22;6444;49.742;6.114;2023-04-07T05:11:13;10.30;99.90
12761;DHT22;6444;49.742;6.114;2023-04-07T05:13:40;10.50;99.90
12761;DHT22;6444;49.742;6.114;2023-04-07T05:16:06;10.10;99.90
12761;DHT22;6444;49.742;6.114;2023-04-07T05:18:33;9.50;99.90
12761;DHT22;6444;49.742;6.114;2023-04-07T05:21:00;9.80;99.90
12761;DHT22;6444;49.742;6.114;2023-04-07T05:23:27;9.80;99.90
12761;DHT22;6444;49.742;6.114;2023-04-07T05:25:54;9.50;99.90
12761;DHT22;6444;49.742;6.114;2023-04-07T05:28:21;9.40;99.90
12761;DHT22;6444;49.742;6.114;2023-04-07T05:30:47;9.30;99.90
12761;DHT22;6444;49.742;6.114;2023-04-07T05:33:14;9.20;99.90
12761;DHT22;6444;49.742;6.114;2023-04-07T05:35:42;9.20;99.90
12761;DHT22;6444;49.742;6.114;2023-04-07T05:38:07;9.70;99.90
12761;DHT22;6444;49.742;6.114;2023-04-07T05:40:34;10.20;99.90
12761;DHT22;6444;49.742;6.114;2023-04-07T05:43:00;10.40;99.90
12761;DHT22;6444;49.742;6.114;2023-04-07T05:45:27;10.70;99.90
12761;DHT22;6444;49.742;6.114;2023-04-07T05:47:54;11.10;99.90
12761;DHT22;6444;49.742;6.114;2023-04-07T05:50:21;11.10;99.90
12761;DHT22;6444;49.742;6.114;2023-04-07T05:52:48;10.80;99.90
12761;DHT22;6444;49.742;6.114;2023-04-07T05:55:14;10.80;99.90
12761;DHT22;6444;49.742;6.114;2023-04-07T05:57:41;11.20;99.90
12761;DHT22;6444;49.742;6.114;2023-04-07T06:00:08;10.60;99.90
12761;DHT22;6444;49.742;6.114;2023-04-07T06:02:34;10.60;99.90
12761;DHT22;6444;49.742;6.114;2023-04-07T06:05:01;11.30;99.90
12761;DHT22;6444;49.742;6.114;2023-04-07T06:07:28;11.80;99.90
12761;DHT22;6444;49.742;6.114;2023-04-07T06:09:54;12.10;99.90
12761;DHT22;6444;49.742;6.114;2023-04-07T06:12:21;12.20;99.90
12761;DHT22;6444;49.742;6.114;2023-04-07T06:14:51;12.30;99.90
12761;DHT22;6444;49.742;6.114;2023-04-07T06:17:17;12.10;99.90
12761;DHT22;6444;49.742;6.114;2023-04-07T06:19:44;12.10;99.90
12761;DHT22;6444;49.742;6.114;2023-04-07T06:22:10;12.10;99.90
12761;DHT22;6444;49.742;6.114;2023-04-07T06:24:37;11.80;99.90
12761;DHT22;6444;49.742;6.114;2023-04-07T06:27:03;11.60;99.90
12761;DHT22;6444;49.742;6.114;2023-04-07T06:29:31;11.90;99.90
12761;DHT22;6444;49.742;6.114;2023-04-07T06:31:57;11.70;99.90
12761;DHT22;6444;49.742;6.114;2023-04-07T06:34:23;12.10;99.90
12761;DHT22;6444;49.742;6.114;2023-04-07T06:36:50;12.30;99.90
12761;DHT22;6444;49.742;6.114;2023-04-07T06:39:17;12.40;99.90
12761;DHT22;6444;49.742;6.114;2023-04-07T06:41:44;12.80;99.90
12761;DHT22;6444;49.742;6.114;2023-04-07T06:44:11;12.80;99.90
12761;DHT22;6444;49.742;6.114;2023-04-07T06:46:37;12.70;99.90
12761;DHT22;6444;49.742;6.114;2023-04-07T06:49:04;12.80;99.90
12761;DHT22;6444;49.742;6.114;2023-04-07T06:51:30;12.30;99.90
12761;DHT22;6444;49.742;6.114;2023-04-07T06:53:57;12.10;99.90
12761;DHT22;6444;49.742;6.114;2023-04-07T06:56:25;12.00;99.90
12761;DHT22;6444;49.742;6.114;2023-04-07T06:58:51;12.00;99.90
12761;DHT22;6444;49.742;6.114;2023-04-07T07:01:18;12.20;99.90
12761;DHT22;6444;49.742;6.114;2023-04-07T07:03:44;12.50;99.90
12761;DHT22;6444;49.742;6.114;2023-04-07T07:06:11;12.40;99.90
12761;DHT22;6444;49.742;6.114;2023-04-07T07:08:38;12.90;99.90
12761;DHT22;6444;49.742;6.114;2023-04-07T07:11:04;13.00;99.90
12761;DHT22;6444;49.742;6.114;2023-04-07T07:13:31;13.10;99.90
12761;DHT22;6444;49.742;6.114;2023-04-07T07:15:58;13.30;99.90
12761;DHT22;6444;49.742;6.114;2023-04-07T07:18:25;13.20;99.90
12761;DHT22;6444;49.742;6.114;2023-04-07T07:20:52;13.50;99.90
12761;DHT22;6444;49.742;6.114;2023-04-07T07:23:18;13.50;99.90
12761;DHT22;6444;49.742;6.114;2023-04-07T07:25:45;13.30;99.90
12761;DHT22;6444;49.742;6.114;2023-04-07T07:28:11;13.60;99.90
12761;DHT22;6444;49.742;6.114;2023-04-07T07:30:39;13.50;99.90
12761;DHT22;6444;49.742;6.114;2023-04-07T07:33:08;13.50;99.90
12761;DHT22;6444;49.742;6.114;2023-04-07T07:35:36;13.20;99.90
12761;DHT22;6444;49.742;6.114;2023-04-07T07:38:02;13.10;99.90
12761;DHT22;6444;49.742;6.114;2023-04-07T07:40:29;13.40;99.90
12761;DHT22;6444;49.742;6.114;2023-04-07T07:42:56;12.70;99.90
12761;DHT22;6444;49.742;6.114;2023-04-07T07:45:22;12.90;99.90
12761;DHT22;6444;49.742;6.114;2023-04-07T07:47:49;13.30;99.90
12761;DHT22;6444;49.742;6.114;2023-04-07T07:50:16;13.70;99.90
12761;DHT22;6444;49.742;6.114;2023-04-07T07:52:43;13.70;99.90
12761;DHT22;6444;49.742;6.114;2023-04-07T07:55:11;13.60;99.90
12761;DHT22;6444;49.742;6.114;2023-04-07T07:57:37;13.60;99.90
12761;DHT22;6444;49.742;6.114;2023-04-07T08:00:04;13.70;99.90
12761;DHT22;6444;49.742;6.114;2023-04-07T08:02:31;13.70;99.90
12761;DHT22;6444;49.742;6.114;2023-04-07T08:04:58;13.80;99.90
12761;DHT22;6444;49.742;6.114;2023-04-07T08:07:25;13.90;99.90
12761;DHT22;6444;49.742;6.114;2023-04-07T08:09:51;14.00;99.90
12761;DHT22;6444;49.742;6.114;2023-04-07T08:12:17;14.10;99.90
12761;DHT22;6444;49.742;6.114;2023-04-07T08:14:44;14.30;99.90
12761;DHT22;6444;49.742;6.114;2023-04-07T08:17:11;14.30;99.90
12761;DHT22;6444;49.742;6.114;2023-04-07T08:19:37;14.40;99.90
12761;DHT22;6444;49.742;6.114;2023-04-07T08:22:05;14.80;99.90
12761;DHT22;6444;49.742;6.114;2023-04-07T08:24:31;14.70;99.90
12761;DHT22;6444;49.742;6.114;2023-04-07T08:26:58;14.80;99.90
12761;DHT22;6444;49.742;6.114;2023-04-07T08:29:24;14.90;99.90
12761;DHT22;6444;49.742;6.114;2023-04-07T08:31:51;15.10;99.90
12761;DHT22;6444;49.742;6.114;2023-04-07T08:34:18;15.10;99.90
12761;DHT22;6444;49.742;6.114;2023-04-07T08:36:45;15.40;99.90
12761;DHT22;6444;49.742;6.114;2023-04-07T08:39:12;15.40;99.90
12761;DHT22;6444;49.742;6.114;2023-04-07T08:41:39;15.30;99.90
12761;DHT22;6444;49.742;6.114;2023-04-07T08:44:07;15.00;99.90
12761;DHT22;6444;49.742;6.114;2023-04-07T08:46:32;15.00;99.90
12761;DHT22;6444;49.742;6.114;2023-04-07T08:48:58;14.80;99.90
12761;DHT22;6444;49.742;6.114;2023-04-07T08:51:26;14.10;99.90
12761;DHT22;6444;49.742;6.114;2023-04-07T08:53:52;14.10;99.90
12761;DHT22;6444;49.742;6.114;2023-04-07T08:56:19;14.50;99.90
12761;DHT22;6444;49.742;6.114;2023-04-07T08:58:49;15.10;99.90
12761;DHT22;6444;49.742;6.114;2023-04-07T09:01:15;15.50;99.90
12761;DHT22;6444;49.742;6.114;2023-04-07T09:03:43;15.90;99.90
12761;DHT22;6444;49.742;6.114;2023-04-07T09:06:09;16.00;99.90
12761;DHT22;6444;49.742;6.114;2023-04-07T09:08:36;15.50;99.90
12761;DHT22;6444;49.742;6.114;2023-04-07T09:11:03;15.40;99.90
12761;DHT22;6444;49.742;6.114;2023-04-07T09:13:29;15.60;99.90
12761;DHT22;6444;49.742;6.114;2023-04-07T09:15:56;15.60;99.90
12761;DHT22;6444;49.742;6.114;2023-04-07T09:18:22;15.60;99.90
12761;DHT22;6444;49.742;6.114;2023-04-07T09:20:56;15.60;99.90
12761;DHT22;6444;49.742;6.114;2023-04-07T09:23:35;16.30;99.90
12761;DHT22;6444;49.742;6.114;2023-04-07T09:26:26;17.00;99.90
12761;DHT22;6444;49.742;6.114;2023-04-07T09:28:53;17.50;99.90
12761;DHT22;6444;49.742;6.114;2023-04-07T09:31:19;17.40;99.90
12761;DHT22;6444;49.742;6.114;2023-04-07T09:33:46;17.70;99.90
12761;DHT22;6444;49.742;6.114;2023-04-07T09:36:12;17.70;99.90
12761;DHT22;6444;49.742;6.114;2023-04-07T09:38:39;17.60;99.90
12761;DHT22;6444;49.742;6.114;2023-04-07T09:43:36;16.90;99.90
12761;DHT22;6444;49.742;6.114;2023-04-07T09:46:08;16.70;99.90
12761;DHT22;6444;49.742;6.114;2023-04-07T09:48:35;13.90;99.90
12761;DHT22;6444;49.742;6.114;2023-04-07T09:51:15;13.80;99.90
12761;DHT22;6444;49.742;6.114;2023-04-07T09:53:47;13.10;99.90
12761;DHT22;6444;49.742;6.114;2023-04-07T09:56:16;14.00;99.90
12761;DHT22;6444;49.742;6.114;2023-04-07T09:58:44;14.90;99.90
12761;DHT22;6444;49.742;6.114;2023-04-07T10:01:09;15.30;99.90
12761;DHT22;6444;49.742;6.114;2023-04-07T10:03:36;15.40;99.90
12761;DHT22;6444;49.742;6.114;2023-04-07T10:06:03;15.30;99.90
12761;DHT22;6444;49.742;6.114;2023-04-07T10:08:33;15.30;99.90
12761;DHT22;6444;49.742;6.114;2023-04-07T10:11:02;15.60;99.90
12761;DHT22;6444;49.742;6.114;2023-04-07T10:13:31;15.90;99.90
12761;DHT22;6444;49.742;6.114;2023-04-07T10:15:58;15.70;99.90
12761;DHT22;6444;49.742;6.114;2023-04-07T10:18:27;15.60;99.90
12761;DHT22;6444;49.742;6.114;2023-04-07T10:20:52;16.50;99.90
12761;DHT22;6444;49.742;6.114;2023-04-07T10:23:20;17.10;99.90
12761;DHT22;6444;49.742;6.114;2023-04-07T10:25:45;17.30;99.90
12761;DHT22;6444;49.742;6.114;2023-04-07T10:28:11;17.40;99.90
12761;DHT22;6444;49.742;6.114;2023-04-07T10:30:38;17.20;99.90
12761;DHT22;6444;49.742;6.114;2023-04-07T10:33:06;14.80;99.90
12761;DHT22;6444;49.742;6.114;2023-04-07T10:36:04;14.70;99.90
12761;DHT22;6444;49.742;6.114;2023-04-07T10:38:30;13.70;99.90
12761;DHT22;6444;49.742;6.114;2023-04-07T10:40:56;13.20;99.90
12761;DHT22;6444;49.742;6.114;2023-04-07T10:43:35;13.30;99.90
12761;DHT22;6444;49.742;6.114;2023-04-07T10:46:01;13.50;99.90
12761;DHT22;6444;49.742;6.114;2023-04-07T10:48:28;13.40;99.90
12761;DHT22;6444;49.742;6.114;2023-04-07T10:53:32;14.00;99.90
12761;DHT22;6444;49.742;6.114;2023-04-07T10:55:58;14.00;99.90
12761;DHT22;6444;49.742;6.114;2023-04-07T10:58:28;13.80;99.90
12761;DHT22;6444;49.742;6.114;2023-04-07T11:03:35;14.20;99.90
12761;DHT22;6444;49.742;6.114;2023-04-07T11:06:07;14.20;99.90
12761;DHT22;6444;49.742;6.114;2023-04-07T11:08:40;13.20;99.90
12761;DHT22;6444;49.742;6.114;2023-04-07T11:11:06;13.20;99.90
12761;DHT22;6444;49.742;6.114;2023-04-07T11:13:38;12.80;99.90
12761;DHT22;6444;49.742;6.114;2023-04-07T11:15:59;13.10;99.90
12761;DHT22;6444;49.742;6.114;2023-04-07T11:18:26;13.70;99.90
12761;DHT22;6444;49.742;6.114;2023-04-07T11:20:56;14.20;99.90
12761;DHT22;6444;49.742;6.114;2023-04-07T11:23:22;14.30;99.90
12761;DHT22;6444;49.742;6.114;2023-04-07T11:25:49;14.40;99.90
12761;DHT22;6444;49.742;6.114;2023-04-07T11:28:15;14.00;99.90
12761;DHT22;6444;49.742;6.114;2023-04-07T11:30:49;13.40;99.90
12761;DHT22;6444;49.742;6.114;2023-04-07T11:33:15;14.10;99.90
12761;DHT22;6444;49.742;6.114;2023-04-07T11:35:51;14.40;99.90
12761;DHT22;6444;49.742;6.114;2023-04-07T11:38:17;14.40;99.90
12761;DHT22;6444;49.742;6.114;2023-04-07T11:40:44;14.00;99.90
12761;DHT22;6444;49.742;6.114;2023-04-07T11:43:20;13.90;99.90
12761;DHT22;6444;49.742;6.114;2023-04-07T11:46:01;14.60;99.90
12761;DHT22;6444;49.742;6.114;2023-04-07T11:48:28;14.60;99.90
12761;DHT22;6444;49.742;6.114;2023-04-07T11:50:54;15.40;99.90
12761;DHT22;6444;49.742;6.114;2023-04-07T11:53:27;16.10;99.90
12761;DHT22;6444;49.742;6.114;2023-04-07T11:56:04;15.00;99.90
12761;DHT22;6444;49.742;6.114;2023-04-07T11:58:30;15.00;99.90
12761;DHT22;6444;49.742;6.114;2023-04-07T12:00:57;14.90;99.90
12761;DHT22;6444;49.742;6.114;2023-04-07T12:03:23;15.10;99.90
12761;DHT22;6444;49.742;6.114;2023-04-07T12:05:50;15.50;99.90
12761;DHT22;6444;49.742;6.114;2023-04-07T12:08:16;15.40;99.90
12761;DHT22;6444;49.742;6.114;2023-04-07T12:10:44;15.00;99.90
12761;DHT22;6444;49.742;6.114;2023-04-07T12:13:11;15.00;99.90
12761;DHT22;6444;49.742;6.114;2023-04-07T12:15:37;13.20;99.90
12761;DHT22;6444;49.742;6.114;2023-04-07T12:18:04;13.50;99.90
12761;DHT22;6444;49.742;6.114;2023-04-07T12:20:30;14.40;99.90
12761;DHT22;6444;49.742;6.114;2023-04-07T12:22:57;14.70;99.90
12761;DHT22;6444;49.742;6.114;2023-04-07T12:25:25;15.70;99.90
12761;DHT22;6444;49.742;6.114;2023-04-07T12:27:51;15.70;99.90
12761;DHT22;6444;49.742;6.114;2023-04-07T12:30:18;16.00;99.90
12761;DHT22;6444;49.742;6.114;2023-04-07T12:32:45;16.40;99.90
12761;DHT22;6444;49.742;6.114;2023-04-07T12:35:12;16.40;99.90
12761;DHT22;6444;49.742;6.114;2023-04-07T12:37:38;16.90;99.90
12761;DHT22;6444;49.742;6.114;2023-04-07T12:40:05;17.30;99.90
12761;DHT22;6444;49.742;6.114;2023-04-07T12:42:32;17.40;99.90
12761;DHT22;6444;49.742;6.114;2023-04-07T12:44:58;16.80;99.90
12761;DHT22;6444;49.742;6.114;2023-04-07T12:47:25;16.30;99.90
12761;DHT22;6444;49.742;6.114;2023-04-07T12:49:51;16.60;99.90
12761;DHT22;6444;49.742;6.114;2023-04-07T12:52:18;16.60;99.90
12761;DHT22;6444;49.742;6.114;2023-04-07T12:54:45;16.80;99.90
12761;DHT22;6444;49.742;6.114;2023-04-07T12:57:11;16.90;99.90
12761;DHT22;6444;49.742;6.114;2023-04-07T12:59:38;17.30;99.90
12761;DHT22;6444;49.742;6.114;2023-04-07T13:02:05;17.50;99.90
12761;DHT22;6444;49.742;6.114;2023-04-07T13:04:31;17.10;99.90
12761;DHT22;6444;49.742;6.114;2023-04-07T13:06:58;17.20;99.90
12761;DHT22;6444;49.742;6.114;2023-04-07T13:09:24;16.60;99.90
12761;DHT22;6444;49.742;6.114;2023-04-07T13:11:51;16.90;99.90
12761;DHT22;6444;49.742;6.114;2023-04-07T13:14:18;17.40;99.90
12761;DHT22;6444;49.742;6.114;2023-04-07T13:16:44;17.60;99.90
12761;DHT22;6444;49.742;6.114;2023-04-07T13:19:11;16.80;99.90
12761;DHT22;6444;49.742;6.114;2023-04-07T13:21:38;16.20;99.90
12761;DHT22;6444;49.742;6.114;2023-04-07T13:24:04;15.30;99.90
12761;DHT22;6444;49.742;6.114;2023-04-07T13:26:31;15.70;99.90
12761;DHT22;6444;49.742;6.114;2023-04-07T13:28:58;16.10;99.90
12761;DHT22;6444;49.742;6.114;2023-04-07T13:31:24;16.30;99.90
12761;DHT22;6444;49.742;6.114;2023-04-07T13:33:51;16.30;99.90
12761;DHT22;6444;49.742;6.114;2023-04-07T13:36:17;16.10;99.90
12761;DHT22;6444;49.742;6.114;2023-04-07T13:38:44;17.00;99.90
12761;DHT22;6444;49.742;6.114;2023-04-07T13:41:11;17.90;99.90
12761;DHT22;6444;49.742;6.114;2023-04-07T13:43:37;18.60;99.90
12761;DHT22;6444;49.742;6.114;2023-04-07T13:46:04;19.00;99.90
12761;DHT22;6444;49.742;6.114;2023-04-07T13:48:31;19.10;99.90
12761;DHT22;6444;49.742;6.114;2023-04-07T13:50:57;18.60;99.90
12761;DHT22;6444;49.742;6.114;2023-04-07T13:53:24;17.10;99.90
12761;DHT22;6444;49.742;6.114;2023-04-07T13:55:51;16.80;99.90
12761;DHT22;6444;49.742;6.114;2023-04-07T13:58:18;16.80;99.90
12761;DHT22;6444;49.742;6.114;2023-04-07T14:00:44;16.80;99.90
12761;DHT22;6444;49.742;6.114;2023-04-07T14:03:11;17.50;99.90
12761;DHT22;6444;49.742;6.114;2023-04-07T14:05:38;15.50;99.90
12761;DHT22;6444;49.742;6.114;2023-04-07T14:08:05;15.50;99.90
12761;DHT22;6444;49.742;6.114;2023-04-07T14:10:32;15.80;99.90
12761;DHT22;6444;49.742;6.114;2023-04-07T14:12:58;16.10;99.90
12761;DHT22;6444;49.742;6.114;2023-04-07T14:15:26;15.20;99.90
12761;DHT22;6444;49.742;6.114;2023-04-07T14:17:52;15.10;99.90
12761;DHT22;6444;49.742;6.114;2023-04-07T14:20:19;14.90;99.90
12761;DHT22;6444;49.742;6.114;2023-04-07T14:22:46;15.40;99.90
12761;DHT22;6444;49.742;6.114;2023-04-07T14:25:13;15.10;99.90
12761;DHT22;6444;49.742;6.114;2023-04-07T14:27:40;15.00;99.90
12761;DHT22;6444;49.742;6.114;2023-04-07T14:30:06;14.50;99.90
12761;DHT22;6444;49.742;6.114;2023-04-07T14:32:33;14.60;99.90
12761;DHT22;6444;49.742;6.114;2023-04-07T14:35:00;13.80;99.90
12761;DHT22;6444;49.742;6.114;2023-04-07T14:37:27;15.30;99.90
12761;DHT22;6444;49.742;6.114;2023-04-07T14:39:54;15.30;99.90
12761;DHT22;6444;49.742;6.114;2023-04-07T14:42:20;16.30;99.90
12761;DHT22;6444;49.742;6.114;2023-04-07T14:44:47;16.90;99.90
12761;DHT22;6444;49.742;6.114;2023-04-07T14:47:14;17.50;99.90
12761;DHT22;6444;49.742;6.114;2023-04-07T14:49:41;17.50;99.90
12761;DHT22;6444;49.742;6.114;2023-04-07T14:52:08;16.50;99.90
12761;DHT22;6444;49.742;6.114;2023-04-07T14:54:34;15.50;99.90
12761;DHT22;6444;49.742;6.114;2023-04-07T14:57:01;15.70;99.90
12761;DHT22;6444;49.742;6.114;2023-04-07T14:59:27;15.80;99.90
12761;DHT22;6444;49.742;6.114;2023-04-07T15:01:54;16.00;99.90
12761;DHT22;6444;49.742;6.114;2023-04-07T15:04:21;15.70;99.90
12761;DHT22;6444;49.742;6.114;2023-04-07T15:06:47;16.00;99.90
12761;DHT22;6444;49.742;6.114;2023-04-07T15:09:14;15.80;99.90
12761;DHT22;6444;49.742;6.114;2023-04-07T15:11:41;15.40;99.90
12761;DHT22;6444;49.742;6.114;2023-04-07T15:14:07;15.70;99.90
12761;DHT22;6444;49.742;6.114;2023-04-07T15:16:34;15.70;99.90
12761;DHT22;6444;49.742;6.114;2023-04-07T15:19:00;15.50;99.90
12761;DHT22;6444;49.742;6.114;2023-04-07T15:21:27;15.40;99.90
12761;DHT22;6444;49.742;6.114;2023-04-07T15:23:54;15.70;99.90
12761;DHT22;6444;49.742;6.114;2023-04-07T15:26:20;15.90;99.90
12761;DHT22;6444;49.742;6.114;2023-04-07T15:28:47;16.40;99.90
12761;DHT22;6444;49.742;6.114;2023-04-07T15:31:14;16.40;99.90
12761;DHT22;6444;49.742;6.114;2023-04-07T15:33:40;15.80;99.90
12761;DHT22;6444;49.742;6.114;2023-04-07T15:36:07;15.50;99.90
12761;DHT22;6444;49.742;6.114;2023-04-07T15:38:34;15.70;99.90
12761;DHT22;6444;49.742;6.114;2023-04-07T15:41:00;15.80;99.90
12761;DHT22;6444;49.742;6.114;2023-04-07T15:43:27;15.40;99.90
12761;DHT22;6444;49.742;6.114;2023-04-07T15:45:53;15.10;99.90
12761;DHT22;6444;49.742;6.114;2023-04-07T15:48:20;14.80;99.90
12761;DHT22;6444;49.742;6.114;2023-04-07T15:50:47;15.50;99.90
12761;DHT22;6444;49.742;6.114;2023-04-07T15:53:13;14.60;99.90
12761;DHT22;6444;49.742;6.114;2023-04-07T15:55:40;14.70;99.90
12761;DHT22;6444;49.742;6.114;2023-04-07T15:58:06;14.60;99.90
12761;DHT22;6444;49.742;6.114;2023-04-07T16:00:33;14.90;99.90
12761;DHT22;6444;49.742;6.114;2023-04-07T16:03:00;15.40;99.90